Salineno, Texas
Current Conditions -  °F | °C
As of 10:55 PM on Wednesday 22 Oct 2014 (Local Time) from KAPY Reporting Station
Overcast Overcast  
Wind Chill: 75°   Ceiling: 9000
Heat Index: 75°   Visibility: 10mi
Dew Point: 63°   Wind: 8mph
Humidity: 66%   Direction: 100°E
Pressure: 30.07"   Gusts: NA
Location:  26.52°N, 99.11°W
Report Text: KAPY 230355Z AUTO 10007KT 10SM OVC090 23/17 A3007 RMK AO2 T02400173
Loading
Personal Weather Stations






























Interactive Weather Map
Tropical Storm Tracking
New forecast layout! Learn more

10-Day Weather Forecast

Advertisements
Track Severe Weather on mobile